createdAt,value
2019-02-10T00:01:47.410Z,6.13
2019-02-10T00:04:16.237Z,9.60
2019-02-10T00:06:46.013Z,7.97
2019-02-10T00:09:14.617Z,10.70
2019-02-10T00:11:42.968Z,15.50
2019-02-10T00:14:11.344Z,8.93
2019-02-10T00:16:39.532Z,10.27
2019-02-10T00:19:08.517Z,9.20
2019-02-10T00:21:37.057Z,11.80
2019-02-10T00:24:05.893Z,11.63
2019-02-10T00:26:34.585Z,10.53
2019-02-10T00:29:02.988Z,15.07
2019-02-10T00:31:31.113Z,8.53
2019-02-10T00:33:59.948Z,11.17
2019-02-10T00:36:33.213Z,7.13
2019-02-10T00:38:59.289Z,11.07
2019-02-10T00:41:27.581Z,6.30
2019-02-10T00:43:56.061Z,13.27
2019-02-10T00:46:24.736Z,5.70
2019-02-10T00:48:53.405Z,8.30
2019-02-10T00:51:21.977Z,5.37
2019-02-10T00:53:51.081Z,11.20
2019-02-10T00:56:19.225Z,6.60
2019-02-10T00:58:48.090Z,7.97
2019-02-10T01:01:16.574Z,6.43
2019-02-10T01:03:45.016Z,11.77
2019-02-10T01:06:13.547Z,5.20
2019-02-10T01:08:42.250Z,10.10
2019-02-10T01:11:10.702Z,11.53
2019-02-10T01:13:39.329Z,13.67
2019-02-10T01:16:07.636Z,9.33
2019-02-10T01:18:36.093Z,10.40
2019-02-10T01:21:07.705Z,8.67
2019-02-10T01:23:35.886Z,5.97
2019-02-10T01:26:04.355Z,9.60
2019-02-10T01:28:32.378Z,6.80
2019-02-10T01:31:00.776Z,8.07
2019-02-10T01:33:29.024Z,7.17
2019-02-10T01:35:57.565Z,14.30
2019-02-10T01:38:26.065Z,8.40
2019-02-10T01:40:54.426Z,4.83
2019-02-10T01:43:22.873Z,13.10
2019-02-10T01:45:51.507Z,5.60
2019-02-10T01:48:20.065Z,10.90
2019-02-10T01:50:53.214Z,7.70
2019-02-10T01:53:21.581Z,10.03
2019-02-10T01:55:49.866Z,8.00
2019-02-10T01:58:22.903Z,6.90
2019-02-10T02:00:51.458Z,8.57
2019-02-10T02:03:20.101Z,10.60
2019-02-10T02:05:48.883Z,8.30
2019-02-10T02:08:17.227Z,10.40
2019-02-10T02:10:45.645Z,10.50
2019-02-10T02:13:13.813Z,6.47
2019-02-10T02:15:41.853Z,10.53
2019-02-10T02:18:10.028Z,8.60
2019-02-10T02:20:38.413Z,8.30
2019-02-10T02:23:07.173Z,10.63
2019-02-10T02:25:35.206Z,9.73
2019-02-10T02:28:03.870Z,8.13
2019-02-10T02:30:32.143Z,8.60
2019-02-10T02:33:00.801Z,6.93
2019-02-10T02:35:28.717Z,6.33
2019-02-10T02:37:56.933Z,8.87
2019-02-10T02:40:25.342Z,5.87
2019-02-10T02:42:55.361Z,9.70
2019-02-10T02:45:24.144Z,12.13
2019-02-10T02:47:52.360Z,6.93
2019-02-10T02:50:21.179Z,5.27
2019-02-10T02:52:49.786Z,9.13
2019-02-10T02:55:18.197Z,11.20
2019-02-10T02:57:46.417Z,6.77
2019-02-10T03:00:14.786Z,9.80
2019-02-10T03:02:43.265Z,11.60
2019-02-10T03:05:11.775Z,10.50
2019-02-10T03:07:40.551Z,7.07
2019-02-10T03:10:08.999Z,11.10
2019-02-10T03:12:37.391Z,9.87
2019-02-10T03:15:06.213Z,12.63
2019-02-10T03:17:35.284Z,9.87
2019-02-10T03:20:04.151Z,12.50
2019-02-10T03:22:32.402Z,12.03
2019-02-10T03:25:01.277Z,6.58
2019-02-10T03:27:29.568Z,13.37
2019-02-10T03:29:58.603Z,5.03
2019-02-10T03:32:26.643Z,5.30
2019-02-10T03:34:55.069Z,13.60
2019-02-10T03:37:27.218Z,7.80
2019-02-10T03:39:54.113Z,8.47
2019-02-10T03:42:22.590Z,8.48
2019-02-10T03:44:50.593Z,9.13
2019-02-10T03:47:18.519Z,4.40
2019-02-10T03:49:46.553Z,6.50
2019-02-10T03:52:14.477Z,6.10
2019-02-10T03:54:42.509Z,6.92
2019-02-10T03:57:11.079Z,9.33
2019-02-10T03:59:39.281Z,6.67
2019-02-10T04:02:07.546Z,9.90
2019-02-10T04:04:35.706Z,6.70
2019-02-10T04:07:03.829Z,8.38
2019-02-10T04:09:32.306Z,6.23
2019-02-10T04:12:00.232Z,5.47
2019-02-10T04:14:28.501Z,11.75
2019-02-10T04:16:56.553Z,6.47
2019-02-10T04:19:25.133Z,6.83
2019-02-10T04:21:53.302Z,4.15
2019-02-10T04:24:21.497Z,9.70
2019-02-10T04:26:49.821Z,7.97
2019-02-10T04:29:17.982Z,15.25
2019-02-10T04:31:45.999Z,5.22
2019-02-10T04:34:14.057Z,3.65
2019-02-10T04:36:41.961Z,7.53
2019-02-10T04:39:10.026Z,6.53
2019-02-10T04:41:37.964Z,9.88
2019-02-10T04:44:06.381Z,7.58
2019-02-10T04:46:34.395Z,7.50
2019-02-10T04:49:02.530Z,8.50
2019-02-10T04:51:30.712Z,3.22
2019-02-10T04:53:59.137Z,4.05
2019-02-10T04:56:27.262Z,2.60
2019-02-10T04:58:55.322Z,5.62
2019-02-10T05:01:26.428Z,2.62
2019-02-10T05:03:54.457Z,2.13
2019-02-10T05:06:23.477Z,5.45
2019-02-10T05:08:51.951Z,6.20
2019-02-10T05:11:20.340Z,3.85
2019-02-10T05:13:48.345Z,3.25
2019-02-10T05:16:16.781Z,1.90
2019-02-10T05:18:44.957Z,3.30
2019-02-10T05:21:12.873Z,5.78
2019-02-10T05:23:41.055Z,4.35
2019-02-10T05:26:09.218Z,3.65
2019-02-10T05:28:37.291Z,4.53
2019-02-10T05:31:05.353Z,3.60
2019-02-10T05:33:33.487Z,7.70
2019-02-10T05:36:01.654Z,1.70
2019-02-10T05:38:29.669Z,3.20
2019-02-10T05:40:58.013Z,1.80
2019-02-10T05:43:25.932Z,4.30
2019-02-10T05:45:54.365Z,3.80
2019-02-10T05:48:23.089Z,5.15
2019-02-10T05:50:51.118Z,5.85
2019-02-10T05:53:19.058Z,2.07
2019-02-10T05:55:47.219Z,5.58
2019-02-10T05:58:15.154Z,5.00
2019-02-10T06:00:44.159Z,1.90
2019-02-10T06:03:12.190Z,2.70
2019-02-10T06:05:40.116Z,3.63
2019-02-10T06:08:13.507Z,3.10
2019-02-10T06:10:38.086Z,3.95
2019-02-10T06:13:06.166Z,2.67
2019-02-10T06:15:34.289Z,3.40
2019-02-10T06:18:02.282Z,1.80
2019-02-10T06:20:30.382Z,1.95
2019-02-10T06:22:58.333Z,4.65
2019-02-10T06:25:26.625Z,3.10
2019-02-10T06:27:54.557Z,3.87
2019-02-10T06:30:22.818Z,1.23
2019-02-10T06:32:50.777Z,1.57
2019-02-10T06:35:18.839Z,1.57
2019-02-10T06:37:46.889Z,2.87
2019-02-10T06:40:15.223Z,3.90
2019-02-10T06:42:43.373Z,1.70
2019-02-10T06:45:12.085Z,1.70
2019-02-10T06:47:40.625Z,2.00
2019-02-10T06:50:09.556Z,2.43
2019-02-10T06:52:37.542Z,4.05
2019-02-10T06:55:08.188Z,2.43
2019-02-10T06:57:36.366Z,5.50
2019-02-10T07:00:20.466Z,2.30
2019-02-10T07:03:29.062Z,1.17
2019-02-10T07:05:57.170Z,2.15
2019-02-10T07:08:30.423Z,1.60
2019-02-10T07:10:55.057Z,3.07
2019-02-10T07:13:34.341Z,1.30
2019-02-10T07:16:52.357Z,1.20
2019-02-10T07:20:14.669Z,1.00
2019-02-10T07:23:24.561Z,3.90
2019-02-10T07:26:00.437Z,1.83
2019-02-10T07:29:04.018Z,1.77
2019-02-10T07:31:38.287Z,3.73
2019-02-10T07:34:33.147Z,1.47
2019-02-10T07:37:33.140Z,1.30
2019-02-10T07:40:47.917Z,1.77
2019-02-10T07:43:51.906Z,1.20
2019-02-10T07:46:53.665Z,1.43
2019-02-10T07:50:03.526Z,3.90
2019-02-10T07:52:53.325Z,1.63
2019-02-10T07:56:10.997Z,1.50
2019-02-10T07:59:14.853Z,0.97
2019-02-10T08:02:08.589Z,0.90
2019-02-10T08:05:36.562Z,0.93
2019-02-10T08:08:58.543Z,1.43
2019-02-10T08:11:31.374Z,1.10
2019-02-10T08:14:13.866Z,1.23
2019-02-10T08:17:14.949Z,1.37
2019-02-10T08:20:16.110Z,1.30
2019-02-10T08:23:00.593Z,1.07
2019-02-10T08:25:45.413Z,1.37
2019-02-10T08:28:36.423Z,1.10
2019-02-10T08:31:28.906Z,1.07
2019-02-10T08:34:04.473Z,0.80
2019-02-10T08:36:45.126Z,0.70
2019-02-10T08:39:42.967Z,0.73
2019-02-10T08:42:36.289Z,1.10
2019-02-10T08:45:51.915Z,1.13
2019-02-10T08:49:00.541Z,0.80
2019-02-10T08:52:20.663Z,1.33
2019-02-10T08:54:47.601Z,1.00
2019-02-10T08:57:14.650Z,1.23
2019-02-10T08:59:41.837Z,1.43
2019-02-10T09:02:08.869Z,0.97
2019-02-10T09:04:36.014Z,0.60
2019-02-10T09:07:03.155Z,0.70
2019-02-10T09:09:30.373Z,1.17
2019-02-10T09:11:57.398Z,0.87
2019-02-10T09:14:24.452Z,0.80
2019-02-10T09:16:54.678Z,0.80
2019-02-10T09:19:21.698Z,1.83
2019-02-10T09:21:49.220Z,0.87
2019-02-10T09:24:16.389Z,0.90
2019-02-10T09:26:43.520Z,0.90
2019-02-10T09:29:10.560Z,0.70
2019-02-10T09:31:37.801Z,1.20
2019-02-10T09:34:04.751Z,0.97
2019-02-10T09:36:34.905Z,0.87
2019-02-10T09:39:10.708Z,0.83
2019-02-10T09:41:35.970Z,1.10
2019-02-10T09:44:04.253Z,3.23
2019-02-10T09:46:32.333Z,1.60
2019-02-10T09:49:00.263Z,2.03
2019-02-10T09:51:28.194Z,4.07
2019-02-10T09:53:56.357Z,1.60
2019-02-10T09:56:24.892Z,1.67
2019-02-10T09:58:53.131Z,1.30
2019-02-10T10:01:21.274Z,1.13
2019-02-10T10:03:49.209Z,1.10
2019-02-10T10:06:17.140Z,1.17
2019-02-10T10:08:45.305Z,0.97
2019-02-10T10:11:13.323Z,1.80
2019-02-10T10:13:41.339Z,2.77
2019-02-10T10:16:09.361Z,1.20
2019-02-10T10:18:37.418Z,1.13
2019-02-10T10:21:06.393Z,1.40
2019-02-10T10:23:34.685Z,0.90
2019-02-10T10:26:03.034Z,1.37
2019-02-10T10:28:31.806Z,2.20
2019-02-10T10:30:59.954Z,2.50
2019-02-10T10:33:28.053Z,2.20
2019-02-10T10:35:56.207Z,1.27
2019-02-10T10:38:24.425Z,1.50
2019-02-10T10:40:53.581Z,5.40
2019-02-10T10:43:21.914Z,2.40
2019-02-10T10:45:50.615Z,1.47
2019-02-10T10:48:18.585Z,1.07
2019-02-10T10:50:46.885Z,2.20
2019-02-10T10:53:14.913Z,1.50
2019-02-10T10:55:42.839Z,1.40
2019-02-10T10:58:11.005Z,1.53
2019-02-10T11:00:39.306Z,1.20
2019-02-10T11:03:07.395Z,1.20
2019-02-10T11:05:35.430Z,1.73
2019-02-10T11:08:03.840Z,2.70
2019-02-10T11:10:32.621Z,1.90
2019-02-10T11:13:01.073Z,1.40
2019-02-10T11:15:29.936Z,1.40
2019-02-10T11:17:58.329Z,1.60
2019-02-10T11:20:26.914Z,1.93
2019-02-10T11:22:55.509Z,1.10
2019-02-10T11:25:24.173Z,1.93
2019-02-10T11:27:52.737Z,1.87
2019-02-10T11:30:21.478Z,2.87
2019-02-10T11:32:50.194Z,1.97
2019-02-10T11:35:18.901Z,1.43
2019-02-10T11:37:47.696Z,2.00
2019-02-10T11:40:15.966Z,1.10
2019-02-10T11:42:44.727Z,2.00
2019-02-10T11:45:13.238Z,1.73
2019-02-10T11:47:41.949Z,1.80
2019-02-10T11:50:10.457Z,1.43
2019-02-10T11:52:39.395Z,2.27
2019-02-10T11:55:08.180Z,2.10
2019-02-10T11:57:36.521Z,1.90
2019-02-10T12:00:05.413Z,1.67
2019-02-10T12:02:38.129Z,1.70
2019-02-10T12:05:04.881Z,1.87
2019-02-10T12:07:32.837Z,1.90
2019-02-10T12:10:01.389Z,1.70
2019-02-10T12:12:29.680Z,1.33
2019-02-10T12:14:57.785Z,1.40
2019-02-10T12:17:25.982Z,1.10
2019-02-10T12:19:53.921Z,1.53
2019-02-10T12:22:21.997Z,2.13
2019-02-10T12:24:49.921Z,1.50
2019-02-10T12:27:17.952Z,2.70
2019-02-10T12:29:45.930Z,1.30
2019-02-10T12:32:13.993Z,1.20
2019-02-10T12:34:42.272Z,2.27
2019-02-10T12:37:10.307Z,1.13
2019-02-10T12:39:38.290Z,2.10
2019-02-10T12:42:06.525Z,1.17
2019-02-10T12:44:34.662Z,1.27
2019-02-10T12:47:02.905Z,2.10
2019-02-10T12:49:31.181Z,1.53
2019-02-10T12:51:59.345Z,1.83
2019-02-10T12:54:27.377Z,2.03
2019-02-10T12:56:55.336Z,4.00
2019-02-10T12:59:23.718Z,2.20
2019-02-10T13:01:52.147Z,2.60
2019-02-10T13:04:20.297Z,1.43
2019-02-10T13:06:48.840Z,2.17
2019-02-10T13:09:17.993Z,1.47
2019-02-10T13:11:47.628Z,1.53
2019-02-10T13:14:16.385Z,1.30
2019-02-10T13:16:45.274Z,0.97
2019-02-10T13:19:14.045Z,1.60
2019-02-10T13:21:42.569Z,1.80
2019-02-10T13:24:10.693Z,3.03
2019-02-10T13:26:39.109Z,1.60
2019-02-10T13:29:07.840Z,2.73
2019-02-10T13:31:36.289Z,1.50
2019-02-10T13:34:04.888Z,2.70
2019-02-10T13:36:33.444Z,1.90
2019-02-10T13:39:01.962Z,1.60
2019-02-10T13:41:36.218Z,2.43
2019-02-10T13:44:05.181Z,1.57
2019-02-10T13:46:33.953Z,1.00
2019-02-10T13:49:02.306Z,1.07
2019-02-10T13:51:30.736Z,1.10
2019-02-10T13:53:59.524Z,1.27
2019-02-10T13:56:27.836Z,0.90
2019-02-10T13:58:55.889Z,0.90
2019-02-10T14:01:23.914Z,2.60
2019-02-10T14:03:51.883Z,0.97
2019-02-10T14:06:19.852Z,1.03
2019-02-10T14:08:48.007Z,1.10
2019-02-10T14:11:18.389Z,1.10
2019-02-10T14:13:46.624Z,1.60
2019-02-10T14:16:14.894Z,1.37
2019-02-10T14:18:44.341Z,2.57
2019-02-10T14:21:12.609Z,1.73
2019-02-10T14:23:40.581Z,1.50
2019-02-10T14:26:08.533Z,1.47
2019-02-10T14:28:36.734Z,1.70
2019-02-10T14:31:05.005Z,2.70
2019-02-10T14:33:38.647Z,3.07
2019-02-10T14:36:03.070Z,2.07
2019-02-10T14:38:36.201Z,2.07
2019-02-10T14:40:58.863Z,3.47
2019-02-10T14:43:25.806Z,2.40
2019-02-10T14:45:52.953Z,2.70
2019-02-10T14:48:20.189Z,2.40
2019-02-10T14:50:48.310Z,1.77
2019-02-10T14:53:16.774Z,2.17
2019-02-10T14:55:44.822Z,1.63
2019-02-10T14:58:13.329Z,2.80
2019-02-10T15:00:41.405Z,1.90
2019-02-10T15:03:09.581Z,2.27
2019-02-10T15:05:37.739Z,1.93
2019-02-10T15:08:05.878Z,1.60
2019-02-10T15:10:41.540Z,2.00
2019-02-10T15:13:04.134Z,1.83
2019-02-10T15:15:32.086Z,3.50
2019-02-10T15:18:00.465Z,2.37
2019-02-10T15:20:28.505Z,1.57
2019-02-10T15:22:56.429Z,1.53
2019-02-10T15:25:24.469Z,2.93
2019-02-10T15:27:52.601Z,1.50
2019-02-10T15:30:20.635Z,1.73
2019-02-10T15:32:48.834Z,1.00
2019-02-10T15:35:16.960Z,1.20
2019-02-10T15:37:45.349Z,1.77
2019-02-10T15:40:13.386Z,2.77
2019-02-10T15:42:41.302Z,1.87
2019-02-10T15:45:09.483Z,1.50
2019-02-10T15:47:37.734Z,1.03
2019-02-10T15:50:06.718Z,1.40
2019-02-10T15:52:34.749Z,2.53
2019-02-10T15:55:03.129Z,1.27
2019-02-10T15:57:31.063Z,2.37
2019-02-10T15:59:59.433Z,2.03
2019-02-10T16:02:29.712Z,2.13
2019-02-10T16:04:57.665Z,3.47
2019-02-10T16:07:25.814Z,2.40
2019-02-10T16:09:53.866Z,2.00
2019-02-10T16:12:22.271Z,3.10
2019-02-10T16:14:51.373Z,2.30
2019-02-10T16:17:19.555Z,3.10
2019-02-10T16:19:47.850Z,3.87
2019-02-10T16:22:15.947Z,3.10
2019-02-10T16:24:43.909Z,5.47
2019-02-10T16:27:14.326Z,3.83
2019-02-10T16:29:42.573Z,3.70
2019-02-10T16:32:10.605Z,3.73
2019-02-10T16:34:38.945Z,2.50
2019-02-10T16:37:07.187Z,2.70
2019-02-10T16:39:38.338Z,1.97
2019-02-10T16:42:06.631Z,3.20
2019-02-10T16:44:34.545Z,3.13
2019-02-10T16:47:02.841Z,2.43
2019-02-10T16:49:30.949Z,3.05
2019-02-10T16:52:02.936Z,3.05
2019-02-10T16:54:31.145Z,2.73
2019-02-10T16:56:59.334Z,3.97
2019-02-10T16:59:27.365Z,3.30
2019-02-10T17:01:55.318Z,4.05
2019-02-10T17:04:26.353Z,2.60
2019-02-10T17:06:58.694Z,4.15
2019-02-10T17:09:27.693Z,2.55
2019-02-10T17:11:56.371Z,3.72
2019-02-10T17:14:25.564Z,5.20
2019-02-10T17:16:54.789Z,5.30
2019-02-10T17:19:22.973Z,4.67
2019-02-10T17:21:51.425Z,4.95
2019-02-10T17:24:19.929Z,5.42
2019-02-10T17:26:47.889Z,8.33
2019-02-10T17:29:19.485Z,7.42
2019-02-10T17:31:46.813Z,8.60
2019-02-10T17:34:15.417Z,7.35
2019-02-10T17:36:44.157Z,7.03
2019-02-10T17:39:19.918Z,6.55
2019-02-10T17:41:48.574Z,6.22
2019-02-10T17:44:17.293Z,6.45
2019-02-10T17:46:45.856Z,5.75
2019-02-10T17:49:19.784Z,6.90
2019-02-10T17:51:46.948Z,8.15
2019-02-10T17:54:14.361Z,6.85
2019-02-10T17:56:43.020Z,6.97
2019-02-10T17:59:13.007Z,7.83
2019-02-10T18:01:45.713Z,7.08
2019-02-10T18:04:14.073Z,7.67
2019-02-10T18:06:41.884Z,6.67
2019-02-10T18:09:08.824Z,6.08
2019-02-10T18:11:36.957Z,8.80
2019-02-10T18:14:29.801Z,5.55
2019-02-10T18:17:12.669Z,6.53
2019-02-10T18:19:56.467Z,3.85
2019-02-10T18:22:48.778Z,3.77
2019-02-10T18:25:44.052Z,2.75
2019-02-10T18:28:28.078Z,4.08
2019-02-10T18:31:12.936Z,3.92
2019-02-10T18:33:59.128Z,4.25
2019-02-10T18:37:03.989Z,4.58
2019-02-10T18:39:43.310Z,3.70
2019-02-10T18:42:33.008Z,3.90
2019-02-10T18:45:21.417Z,4.03
2019-02-10T18:48:26.282Z,3.98
2019-02-10T18:51:06.305Z,5.72
2019-02-10T18:53:53.141Z,5.92
2019-02-10T18:56:36.499Z,6.50
2019-02-10T18:59:39.081Z,5.30
2019-02-10T19:02:30.688Z,5.53
2019-02-10T19:05:16.370Z,6.20
2019-02-10T19:08:01.938Z,6.65
2019-02-10T19:10:36.925Z,6.50
2019-02-10T19:13:22.292Z,8.60
2019-02-10T19:15:59.244Z,7.85
2019-02-10T19:18:49.882Z,8.18
2019-02-10T19:21:37.230Z,9.43
2019-02-10T19:24:12.395Z,10.85
2019-02-10T19:26:58.690Z,12.28
2019-02-10T19:29:44.168Z,9.78
2019-02-10T19:32:39.601Z,5.85
2019-02-10T19:35:22.533Z,5.37
2019-02-10T19:38:16.786Z,4.33
2019-02-10T19:40:51.242Z,4.62
2019-02-10T19:43:51.201Z,4.42
2019-02-10T19:46:39.226Z,4.72
2019-02-10T19:49:14.910Z,5.00
2019-02-10T19:51:57.616Z,5.75
2019-02-10T19:54:41.572Z,5.62
2019-02-10T19:57:45.555Z,7.12
2019-02-10T20:00:33.782Z,7.40
2019-02-10T20:03:38.299Z,7.70
2019-02-10T20:06:32.434Z,8.55
2019-02-10T20:09:34.342Z,7.58
2019-02-10T20:12:10.248Z,5.08
2019-02-10T20:14:42.633Z,5.15
2019-02-10T20:17:35.001Z,6.42
2019-02-10T20:20:25.253Z,6.15
2019-02-10T20:23:13.538Z,6.35
2019-02-10T20:25:58.925Z,6.30
2019-02-10T20:28:55.359Z,5.55
2019-02-10T20:31:36.564Z,6.35
2019-02-10T20:34:26.495Z,6.40
2019-02-10T20:37:26.213Z,6.62
2019-02-10T20:40:28.717Z,7.10
2019-02-10T20:43:03.096Z,7.20
2019-02-10T20:45:50.234Z,6.70
2019-02-10T20:48:25.322Z,7.50
2019-02-10T20:51:22.081Z,6.70
2019-02-10T20:54:03.738Z,7.08
2019-02-10T20:56:52.844Z,7.50
2019-02-10T20:59:42.364Z,8.35
2019-02-10T21:02:25.813Z,8.00
2019-02-10T21:05:06.369Z,8.43
2019-02-10T21:07:57.278Z,8.40
2019-02-10T21:10:36.567Z,7.97
2019-02-10T21:13:39.686Z,7.37
2019-02-10T21:16:25.873Z,8.13
2019-02-10T21:19:07.820Z,7.95
2019-02-10T21:21:42.390Z,7.15
2019-02-10T21:24:35.204Z,6.42
2019-02-10T21:27:22.986Z,5.67
2019-02-10T21:30:12.337Z,5.30
2019-02-10T21:32:47.005Z,4.50
2019-02-10T21:35:33.134Z,4.10
2019-02-10T21:38:26.137Z,5.37
2019-02-10T21:41:00.090Z,4.22
2019-02-10T21:43:37.793Z,5.22
2019-02-10T21:46:15.814Z,6.92
2019-02-10T21:48:50.825Z,5.72
2019-02-10T21:51:19.057Z,5.72
2019-02-10T21:53:50.349Z,5.80
2019-02-10T21:56:18.457Z,6.10
2019-02-10T21:58:46.385Z,7.37
2019-02-10T22:01:14.353Z,6.85
2019-02-10T22:03:42.317Z,6.55
2019-02-10T22:06:16.651Z,7.95
2019-02-10T22:08:44.894Z,7.37
2019-02-10T22:11:12.826Z,7.40
2019-02-10T22:13:40.857Z,6.83
2019-02-10T22:16:09.284Z,5.30
2019-02-10T22:18:40.643Z,4.90
2019-02-10T22:21:08.729Z,4.55
2019-02-10T22:23:37.060Z,3.65
2019-02-10T22:26:05.285Z,3.75
2019-02-10T22:28:33.315Z,5.37
2019-02-10T22:31:03.719Z,5.25
2019-02-10T22:33:31.673Z,5.08
2019-02-10T22:35:59.796Z,3.65
2019-02-10T22:38:27.821Z,2.65
2019-02-10T22:40:55.973Z,2.60
2019-02-10T22:43:27.609Z,2.15
2019-02-10T22:45:55.538Z,2.02
2019-02-10T22:48:23.965Z,1.40
2019-02-10T22:50:53.769Z,1.70
2019-02-10T22:53:21.806Z,1.92
2019-02-10T22:55:52.034Z,2.30
2019-02-10T22:58:20.069Z,4.03
2019-02-10T23:00:55.337Z,5.35
2019-02-10T23:03:23.577Z,5.20
2019-02-10T23:05:53.961Z,5.25
2019-02-10T23:08:21.901Z,4.28
2019-02-10T23:10:51.909Z,3.83
2019-02-10T23:13:20.366Z,3.47
2019-02-10T23:15:48.629Z,4.12
2019-02-10T23:18:18.884Z,3.30
2019-02-10T23:20:47.765Z,3.65
2019-02-10T23:23:16.093Z,4.30
2019-02-10T23:25:44.992Z,4.58
2019-02-10T23:28:13.721Z,4.92
2019-02-10T23:30:43.447Z,4.45
2019-02-10T23:33:11.944Z,4.83
2019-02-10T23:35:40.205Z,5.28
2019-02-10T23:38:08.505Z,5.75
2019-02-10T23:40:37.111Z,5.50
2019-02-10T23:43:08.278Z,5.80
2019-02-10T23:45:36.324Z,5.10
2019-02-10T23:48:05.025Z,5.78
2019-02-10T23:50:33.890Z,5.40
2019-02-10T23:53:02.225Z,6.22
2019-02-10T23:55:35.101Z,6.35
2019-02-10T23:58:03.756Z,6.25
